Time;durP1;ratioP1;P1;durP2;ratioP2;P2;SDS_P1;SDS_P2;PMS_P1;PMS_P2;Temp;Humidity;BMP_temperature;BMP_pressure;BME280_temperature;BME280_humidity;BME280_pressure;Samples;Min_cycle;Max_cycle;Signal;HPM_P1;HPM_P2
2023/12/21 00:02:19;;;;;;;4.27;2.17;;;;;4.60;95815.00;;;;8298937;28;20308;-83
2023/12/21 00:06:23;;;;;;;11.07;2.27;;;;;4.60;95816.00;;;;8299501;28;20194;-84
2023/12/21 00:10:26;;;;;;;6.07;2.40;;;;;4.70;95815.00;;;;8298640;28;20201;-84
2023/12/21 00:14:30;;;;;;;5.17;1.70;;;;;4.70;95810.00;;;;8299742;28;20730;-85
2023/12/21 00:18:33;;;;;;;8.60;1.90;;;;;4.70;95805.00;;;;8298638;28;20248;-85
2023/12/21 00:22:38;;;;;;;2.13;1.90;;;;;4.70;95799.00;;;;8298787;28;20219;-85
2023/12/21 00:26:41;;;;;;;5.60;2.57;;;;;4.70;95803.00;;;;8299011;28;20643;-84
2023/12/21 00:30:44;;;;;;;4.00;2.73;;;;;4.70;95806.00;;;;8297468;28;20233;-83
2023/12/21 00:34:49;;;;;;;4.57;2.10;;;;;4.70;95803.00;;;;8298841;28;20597;-81
2023/12/21 00:38:54;;;;;;;7.47;2.83;;;;;4.60;95805.00;;;;8298744;28;20190;-79
2023/12/21 00:42:58;;;;;;;7.20;2.50;;;;;4.50;95796.00;;;;8298455;28;20613;-79
2023/12/21 00:47:02;;;;;;;8.53;2.87;;;;;4.50;95793.00;;;;8300590;28;20237;-80
2023/12/21 00:51:07;;;;;;;9.73;2.77;;;;;4.40;95783.00;;;;8303389;28;20644;-80
2023/12/21 00:55:11;;;;;;;8.30;2.80;;;;;4.40;95784.00;;;;8304718;28;20701;-79
2023/12/21 00:59:15;;;;;;;5.73;2.77;;;;;4.40;95788.00;;;;8303852;28;20197;-78
2023/12/21 01:03:18;;;;;;;8.87;2.43;;;;;4.40;95790.00;;;;8303894;28;20226;-78
2023/12/21 01:07:22;;;;;;;2.63;2.17;;;;;4.40;95781.00;;;;8303258;28;20295;-78
2023/12/21 01:11:26;;;;;;;6.83;2.40;;;;;4.30;95786.00;;;;8303883;28;20198;-78
2023/12/21 01:15:29;;;;;;;5.93;2.80;;;;;4.40;95774.00;;;;8303172;28;20664;-78
2023/12/21 01:19:32;;;;;;;6.40;2.53;;;;;4.40;95763.00;;;;8301854;28;20259;-77
2023/12/21 01:23:36;;;;;;;10.70;2.90;;;;;4.40;95768.00;;;;8303578;28;20232;-77
2023/12/21 01:27:41;;;;;;;5.87;2.40;;;;;4.30;95749.00;;;;8303193;28;20198;-77
2023/12/21 01:31:45;;;;;;;7.37;2.73;;;;;4.30;95735.00;;;;8303523;28;20598;-78
2023/12/21 01:35:48;;;;;;;8.07;2.77;;;;;4.20;95732.00;;;;8302051;28;20225;-77
2023/12/21 01:39:51;;;;;;;7.93;3.10;;;;;4.20;95740.00;;;;8303520;28;20213;-77
2023/12/21 01:43:56;;;;;;;9.77;2.63;;;;;4.20;95729.00;;;;8301789;28;20197;-78
2023/12/21 01:47:59;;;;;;;4.77;3.10;;;;;4.20;95729.00;;;;8302070;28;20284;-77
2023/12/21 01:52:05;;;;;;;7.40;3.03;;;;;4.20;95728.00;;;;8301534;28;20216;-77
2023/12/21 01:56:08;;;;;;;12.80;2.57;;;;;4.20;95733.00;;;;8301889;28;20214;-78
2023/12/21 02:00:14;;;;;;;11.87;2.87;;;;;4.20;95717.00;;;;8301031;28;20198;-77
2023/12/21 02:04:17;;;;;;;6.10;3.00;;;;;4.20;95701.00;;;;8302478;28;20280;-78
2023/12/21 02:08:21;;;;;;;6.13;2.80;;;;;4.10;95699.00;;;;8300619;28;20279;-77
2023/12/21 02:12:24;;;;;;;12.40;3.07;;;;;4.20;95692.00;;;;8301023;28;20241;-78
2023/12/21 02:16:35;;;;;;;7.30;2.83;;;;;4.10;95676.00;;;;8301506;28;20588;-77
2023/12/21 02:20:40;;;;;;;2.07;1.87;;;;;4.10;95665.00;;;;8300937;28;20276;-77
2023/12/21 02:24:45;;;;;;;3.87;1.67;;;;;4.10;95655.00;;;;8301119;28;20187;-78
2023/12/21 02:28:48;;;;;;;5.53;2.43;;;;;4.10;95671.00;;;;8300854;28;20193;-78
2023/12/21 02:32:51;;;;;;;4.70;2.63;;;;;4.10;95660.00;;;;8300735;28;20214;-78
2023/12/21 02:36:55;;;;;;;5.77;2.90;;;;;4.20;95648.00;;;;8301152;28;20194;-78
2023/12/21 02:41:00;;;;;;;3.93;2.50;;;;;4.20;95651.00;;;;8300455;28;20194;-78
2023/12/21 02:45:03;;;;;;;2.80;2.10;;;;;4.20;95654.00;;;;8301062;28;20688;-77
2023/12/21 02:49:06;;;;;;;2.50;1.87;;;;;4.20;95642.00;;;;8300673;28;20631;-77
2023/12/21 02:53:09;;;;;;;6.50;2.27;;;;;4.20;95639.00;;;;8300043;28;20228;-78
2023/12/21 02:57:14;;;;;;;6.77;2.53;;;;;4.20;95634.00;;;;8299591;28;20237;-78
2023/12/21 03:05:25;;;;;;;3.70;2.00;;;;;4.20;95591.00;;;;8230703;28;20615;-78
2023/12/21 03:09:28;;;;;;;3.30;2.03;;;;;4.20;95573.00;;;;8239249;28;20276;-76
2023/12/21 03:13:33;;;;;;;4.90;2.37;;;;;4.30;95561.00;;;;8239481;28;20687;-77
2023/12/21 03:17:36;;;;;;;7.83;2.40;;;;;4.30;95550.00;;;;8236578;28;20209;-77
2023/12/21 03:21:39;;;;;;;11.57;2.40;;;;;4.30;95525.00;;;;8254444;28;20752;-77
2023/12/21 03:25:42;;;;;;;2.60;2.37;;;;;4.40;95530.00;;;;8240861;28;20877;-77
2023/12/21 03:29:48;;;;;;;5.40;2.33;;;;;4.40;95526.00;;;;8231908;28;20550;-77
2023/12/21 03:33:51;;;;;;;5.57;2.47;;;;;4.40;95536.00;;;;8235475;28;21013;-78
2023/12/21 03:37:54;;;;;;;3.10;2.10;;;;;4.50;95537.00;;;;8240474;28;20207;-78
2023/12/21 03:41:57;;;;;;;3.17;1.97;;;;;4.50;95530.00;;;;8241770;28;20234;-79
2023/12/21 03:46:02;;;;;;;5.77;2.23;;;;;4.50;95521.00;;;;8239129;28;20218;-78
2023/12/21 03:50:06;;;;;;;5.70;2.77;;;;;4.60;95506.00;;;;8239901;28;20195;-79
2023/12/21 03:54:09;;;;;;;3.87;1.80;;;;;4.60;95501.00;;;;8238679;28;20321;-80
2023/12/21 03:58:12;;;;;;;3.50;2.23;;;;;4.60;95503.00;;;;8239848;28;20199;-79
2023/12/21 04:02:16;;;;;;;4.27;2.57;;;;;4.60;95505.00;;;;8250968;28;20937;-80
2023/12/21 04:06:20;;;;;;;2.53;2.10;;;;;4.70;95503.00;;;;8257377;28;20286;-79
2023/12/21 04:10:23;;;;;;;4.20;2.50;;;;;4.70;95490.00;;;;8254317;28;20742;-80
2023/12/21 04:14:26;;;;;;;6.37;2.40;;;;;4.80;95468.00;;;;8256029;28;20253;-79
2023/12/21 04:18:32;;;;;;;5.10;1.60;;;;;4.80;95463.00;;;;8250420;28;20653;-80
2023/12/21 04:22:35;;;;;;;4.03;2.20;;;;;4.80;95464.00;;;;8261351;28;20194;-80
2023/12/21 04:26:39;;;;;;;4.90;2.30;;;;;4.80;95468.00;;;;8261918;28;20313;-79
2023/12/21 04:30:42;;;;;;;4.07;1.87;;;;;4.90;95468.00;;;;8254584;28;20203;-78
2023/12/21 04:34:47;;;;;;;6.37;2.30;;;;;4.90;95442.00;;;;8251088;28;20254;-77
2023/12/21 04:38:50;;;;;;;7.33;2.33;;;;;4.90;95441.00;;;;8252727;28;20218;-77
2023/12/21 04:42:55;;;;;;;2.50;2.10;;;;;4.90;95430.00;;;;8254890;28;20533;-77
2023/12/21 04:46:59;;;;;;;3.03;2.50;;;;;4.90;95431.00;;;;8254462;28;20253;-77
2023/12/21 04:51:03;;;;;;;5.13;2.60;;;;;4.90;95418.00;;;;8253281;28;20706;-77
2023/12/21 04:55:08;;;;;;;2.07;1.87;;;;;5.00;95403.00;;;;8233072;28;20222;-78
2023/12/21 04:59:11;;;;;;;4.53;2.27;;;;;5.00;95390.00;;;;8241275;28;20281;-79
2023/12/21 05:03:14;;;;;;;3.07;1.93;;;;;5.10;95392.00;;;;8235943;28;20239;-79
2023/12/21 05:07:21;;;;;;;8.93;2.20;;;;;5.10;95395.00;;;;8218968;28;20651;-79
2023/12/21 05:11:24;;;;;;;1.80;1.70;;;;;5.10;95398.00;;;;8214861;28;20206;-80
2023/12/21 05:15:27;;;;;;;13.97;1.57;;;;;5.20;95384.00;;;;8223531;28;20310;-79
2023/12/21 05:19:30;;;;;;;4.23;1.70;;;;;5.20;95384.00;;;;8220216;28;20210;-79
2023/12/21 05:23:35;;;;;;;2.87;1.60;;;;;5.20;95393.00;;;;8224967;28;20200;-78
2023/12/21 05:27:38;;;;;;;2.20;2.00;;;;;5.30;95396.00;;;;8210499;28;20620;-80
2023/12/21 05:31:41;;;;;;;3.07;2.50;;;;;5.30;95395.00;;;;8217406;28;20782;-79
2023/12/21 05:35:45;;;;;;;3.60;2.00;;;;;5.30;95405.00;;;;8218729;28;20227;-79
2023/12/21 05:39:50;;;;;;;6.53;1.77;;;;;5.30;95385.00;;;;8227290;28;21724;-80
2023/12/21 05:43:55;;;;;;;2.87;2.17;;;;;5.30;95384.00;;;;8222625;28;20294;-80
2023/12/21 05:47:58;;;;;;;1.37;1.37;;;;;5.30;95383.00;;;;8222625;28;20203;-79
2023/12/21 05:52:02;;;;;;;3.53;2.00;;;;;5.30;95376.00;;;;8217367;28;20198;-78
2023/12/21 05:56:07;;;;;;;2.73;2.20;;;;;5.30;95360.00;;;;8207467;28;20239;-77
2023/12/21 06:00:12;;;;;;;2.47;1.80;;;;;5.30;95350.00;;;;8206042;28;20716;-79
2023/12/21 06:04:15;;;;;;;5.03;1.80;;;;;5.30;95361.00;;;;8230303;28;20334;-78
2023/12/21 06:08:18;;;;;;;2.60;1.73;;;;;5.30;95366.00;;;;8233380;28;20207;-79
2023/12/21 06:12:23;;;;;;;3.37;1.97;;;;;5.40;95366.00;;;;8243920;28;20317;-80
2023/12/21 06:16:26;;;;;;;1.37;1.37;;;;;5.40;95340.00;;;;8245830;28;20317;-80
2023/12/21 06:20:30;;;;;;;2.67;2.00;;;;;5.40;95360.00;;;;8239690;28;20294;-79
2023/12/21 06:24:33;;;;;;;2.10;1.93;;;;;5.40;95333.00;;;;8241526;28;20207;-80
2023/12/21 06:28:37;;;;;;;2.60;2.00;;;;;5.40;95344.00;;;;8244999;28;20238;-81
2023/12/21 06:32:41;;;;;;;3.30;1.93;;;;;5.40;95342.00;;;;8242666;28;20208;-81
2023/12/21 06:36:45;;;;;;;4.33;2.10;;;;;5.50;95332.00;;;;8243645;28;20237;-82
2023/12/21 06:40:48;;;;;;;69.93;27.47;;;;;5.40;95316.00;;;;8239717;28;20231;-82
2023/12/21 06:44:52;;;;;;;26.60;15.90;;;;;5.40;95308.00;;;;8240983;28;20198;-79
2023/12/21 06:48:56;;;;;;;11.93;10.17;;;;;5.40;95298.00;;;;8243018;28;20945;-80
2023/12/21 06:53:00;;;;;;;5.27;4.67;;;;;5.40;95296.00;;;;8245344;28;20206;-79
2023/12/21 06:57:04;;;;;;;15.83;11.07;;;;;5.40;95286.00;;;;8246809;28;20258;-79
2023/12/21 07:01:09;;;;;;;41.47;27.40;;;;;5.40;95287.00;;;;8241806;28;20252;-80
2023/12/21 07:05:13;;;;;;;4.70;4.20;;;;;5.40;95282.00;;;;8203099;28;20232;-80
2023/12/21 07:09:17;;;;;;;3.00;2.37;;;;;5.40;95273.00;;;;8202284;28;20212;-80
2023/12/21 07:13:21;;;;;;;3.00;2.77;;;;;5.50;95283.00;;;;8195693;28;20211;-80
2023/12/21 07:17:25;;;;;;;6.53;5.60;;;;;5.50;95269.00;;;;8189948;28;20236;-81
2023/12/21 07:21:29;;;;;;;4.17;3.47;;;;;5.50;95265.00;;;;8195746;28;20581;-82
2023/12/21 07:25:32;;;;;;;2.70;2.50;;;;;5.60;95259.00;;;;8193060;28;20290;-82
2023/12/21 07:29:35;;;;;;;3.60;3.40;;;;;5.60;95256.00;;;;8191386;28;20211;-81
2023/12/21 07:33:41;;;;;;;12.60;11.33;;;;;5.60;95250.00;;;;8177164;28;20671;-79
2023/12/21 07:37:44;;;;;;;10.10;8.33;;;;;5.60;95249.00;;;;8190364;28;20908;-79
2023/12/21 07:41:48;;;;;;;2.80;2.60;;;;;5.60;95248.00;;;;8190964;28;20204;-80
2023/12/21 07:45:52;;;;;;;4.27;2.20;;;;;5.60;95245.00;;;;8193679;28;20991;-78
2023/12/21 07:49:57;;;;;;;4.03;2.60;;;;;5.60;95228.00;;;;8194819;28;20565;-80
2023/12/21 07:54:00;;;;;;;2.87;2.67;;;;;5.60;95249.00;;;;8190209;28;20279;-81
2023/12/21 07:58:07;;;;;;;1.80;1.70;;;;;5.60;95231.00;;;;8206436;28;20258;-79
2023/12/21 08:02:11;;;;;;;2.90;1.93;;;;;5.60;95223.00;;;;8214631;28;20223;-78
2023/12/21 08:06:22;;;;;;;2.27;1.30;;;;;5.60;95215.00;;;;8236801;28;20207;-75
2023/12/21 08:10:25;;;;;;;2.53;1.33;;;;;5.60;95222.00;;;;8237301;28;20687;-75
2023/12/21 08:14:31;;;;;;;2.47;1.83;;;;;5.60;95215.00;;;;8237932;28;20195;-75
2023/12/21 08:18:34;;;;;;;258.00;99.73;;;;;5.60;95211.00;;;;8239508;28;20681;-75
2023/12/21 08:22:39;;;;;;;6.80;4.73;;;;;5.60;95201.00;;;;8237028;28;20303;-75
2023/12/21 08:26:45;;;;;;;2.63;1.93;;;;;5.60;95208.00;;;;8238069;28;20207;-74
2023/12/21 08:30:49;;;;;;;6.00;2.30;;;;;5.60;95205.00;;;;8238865;28;20219;-75
2023/12/21 08:34:52;;;;;;;4.10;3.80;;;;;5.70;95195.00;;;;8240193;28;20208;-74
2023/12/21 08:38:57;;;;;;;4.63;3.93;;;;;5.70;95177.00;;;;8239281;28;20693;-73
2023/12/21 08:43:00;;;;;;;2.50;2.10;;;;;5.70;95170.00;;;;8238847;28;20222;-74
2023/12/21 08:47:03;;;;;;;3.87;2.80;;;;;5.70;95157.00;;;;8238229;28;20209;-75
2023/12/21 08:51:06;;;;;;;4.57;3.70;;;;;5.70;95158.00;;;;8239072;28;20199;-76
2023/12/21 08:55:11;;;;;;;32.97;27.47;;;;;5.80;95158.00;;;;8238372;28;20230;-78
2023/12/21 08:59:15;;;;;;;10.77;7.90;;;;;5.80;95135.00;;;;8238608;28;20286;-80
2023/12/21 09:03:19;;;;;;;12.47;10.60;;;;;5.90;95129.00;;;;8253357;28;20225;-81
2023/12/21 09:07:24;;;;;;;6.77;4.10;;;;;5.90;95125.00;;;;8268148;28;20234;-80
2023/12/21 09:11:29;;;;;;;3.33;2.90;;;;;6.00;95112.00;;;;8269364;28;20587;-80
2023/12/21 09:15:32;;;;;;;6.23;2.37;;;;;6.00;95083.00;;;;8268475;28;20226;-81
2023/12/21 09:19:35;;;;;;;6.43;2.57;;;;;6.10;95091.00;;;;8267864;28;20318;-82
2023/12/21 09:23:39;;;;;;;5.20;4.10;;;;;6.20;95091.00;;;;8267971;28;20199;-81
2023/12/21 09:27:44;;;;;;;2.50;2.30;;;;;6.20;95064.00;;;;8268419;28;20625;-82
2023/12/21 09:31:47;;;;;;;2.53;2.20;;;;;6.30;95052.00;;;;8268385;28;20183;-81
2023/12/21 09:35:54;;;;;;;3.27;2.03;;;;;6.30;95040.00;;;;8267995;28;20222;-81
2023/12/21 09:39:58;;;;;;;3.57;1.73;;;;;6.30;95016.00;;;;8268802;28;20194;-80
2023/12/21 09:44:04;;;;;;;1.43;1.40;;;;;6.30;95003.00;;;;8267513;28;20238;-82
2023/12/21 09:48:09;;;;;;;2.13;1.93;;;;;6.30;94989.00;;;;8267682;28;20229;-81
2023/12/21 09:52:13;;;;;;;1.80;1.70;;;;;6.40;94977.00;;;;8267984;28;20575;-81
2023/12/21 09:56:18;;;;;;;1.70;1.60;;;;;6.40;94985.00;;;;8266640;28;20310;-79
2023/12/21 10:00:24;;;;;;;1.70;1.60;;;;;6.40;94974.00;;;;8267458;28;20213;-81
2023/12/21 10:04:27;;;;;;;2.03;1.33;;;;;6.40;94970.00;;;;8209372;28;1687312;-80
2023/12/21 10:08:33;;;;;;;1.60;1.50;;;;;6.40;94958.00;;;;8268455;28;20249;-77
2023/12/21 10:12:37;;;;;;;2.03;1.17;;;;;6.40;94948.00;;;;8268447;28;20198;-77
2023/12/21 10:16:46;;;;;;;1.60;1.50;;;;;6.50;94934.00;;;;8268270;28;20253;-79
2023/12/21 10:20:49;;;;;;;3.83;1.67;;;;;6.50;94923.00;;;;8266368;28;20198;-80
2023/12/21 10:24:52;;;;;;;2.83;1.60;;;;;6.60;94910.00;;;;8267735;28;20213;-82
2023/12/21 10:28:55;;;;;;;1.30;1.30;;;;;6.70;94898.00;;;;8267687;28;20211;-83
2023/12/21 10:33:00;;;;;;;1.40;1.30;;;;;6.80;94867.00;;;;8268114;28;20230;-82
2023/12/21 10:37:04;;;;;;;2.00;1.10;;;;;6.80;94839.00;;;;8267578;28;20222;-82
2023/12/21 10:41:07;;;;;;;1.30;1.30;;;;;6.90;94842.00;;;;8267878;28;20249;-83
2023/12/21 10:45:18;;;;;;;1.00;1.00;;;;;6.90;94820.00;;;;8267583;28;20628;-83
2023/12/21 10:49:40;;;;;;;1.20;1.10;;;;;7.00;94795.00;;;;8265475;28;20215;-85
2023/12/21 10:53:44;;;;;;;0.90;0.90;;;;;7.00;94781.00;;;;8266777;28;20179;-82
2023/12/21 10:57:49;;;;;;;1.00;1.00;;;;;7.10;94763.00;;;;8267071;28;20334;-83
2023/12/21 11:01:52;;;;;;;0.90;0.90;;;;;7.10;94749.00;;;;8267561;28;20227;-82
2023/12/21 11:05:58;;;;;;;1.37;1.20;;;;;7.10;94744.00;;;;8268073;28;20183;-82
2023/12/21 11:10:02;;;;;;;0.90;0.90;;;;;7.20;94736.00;;;;8264838;28;20203;-79
2023/12/21 11:14:05;;;;;;;0.90;0.90;;;;;7.20;94693.00;;;;8265340;28;20199;-79
2023/12/21 11:18:12;;;;;;;0.90;0.90;;;;;7.20;94680.00;;;;8267719;28;20647;-78
2023/12/21 11:22:18;;;;;;;0.90;0.90;;;;;7.30;94688.00;;;;8266013;28;20640;-78
2023/12/21 11:26:27;;;;;;;0.93;0.90;;;;;7.30;94677.00;;;;8266456;28;20191;-78
2023/12/21 11:30:32;;;;;;;1.07;1.07;;;;;7.40;94642.00;;;;8264819;28;20230;-76
2023/12/21 11:34:37;;;;;;;1.20;1.20;;;;;7.40;94650.00;;;;8265901;28;20211;-79
2023/12/21 11:38:45;;;;;;;2.20;1.00;;;;;7.40;94643.00;;;;8265291;28;20225;-79
2023/12/21 11:42:55;;;;;;;0.80;0.80;;;;;7.50;94645.00;;;;8266529;28;20222;-80
2023/12/21 11:47:00;;;;;;;1.03;1.03;;;;;7.50;94616.00;;;;8265516;28;20607;-81
2023/12/21 11:51:04;;;;;;;1.00;1.00;;;;;7.50;94609.00;;;;8266494;28;20198;-80
2023/12/21 11:55:10;;;;;;;1.60;0.70;;;;;7.60;94600.00;;;;8265022;28;20199;-79
2023/12/21 11:59:16;;;;;;;1.23;1.00;;;;;7.60;94574.00;;;;8265471;28;20210;-80
2023/12/21 12:03:21;;;;;;;0.80;0.80;;;;;7.70;94568.00;;;;8265876;28;20225;-77
2023/12/21 12:07:25;;;;;;;0.80;0.80;;;;;7.70;94545.00;;;;8265418;28;20199;-77
2023/12/21 12:11:30;;;;;;;0.90;0.90;;;;;7.70;94541.00;;;;8266155;28;20591;-77
2023/12/21 12:15:33;;;;;;;0.87;0.87;;;;;7.80;94533.00;;;;8265334;28;20659;-77
2023/12/21 12:19:42;;;;;;;0.80;0.80;;;;;7.90;94530.00;;;;8265109;28;20571;-77
2023/12/21 12:23:47;;;;;;;1.80;0.90;;;;;7.90;94534.00;;;;8264508;28;20191;-80
2023/12/21 12:27:51;;;;;;;0.83;0.83;;;;;7.90;94514.00;;;;8264433;28;20194;-81
2023/12/21 12:31:55;;;;;;;0.70;0.70;;;;;7.80;94504.00;;;;8265848;28;20539;-77
2023/12/21 12:35:58;;;;;;;1.05;0.85;;;;;7.70;94495.00;;;;8265288;28;20632;-78
2023/12/21 12:40:04;;;;;;;0.90;0.90;;;;;7.60;94505.00;;;;8265102;28;20317;-76
2023/12/21 12:44:09;;;;;;;1.00;1.00;;;;;7.60;94494.00;;;;8270184;28;20293;-73
2023/12/21 12:48:14;;;;;;;0.90;0.90;;;;;7.50;94480.00;;;;8271535;28;20191;-73
2023/12/21 12:52:18;;;;;;;1.80;1.00;;;;;7.50;94486.00;;;;8270663;28;20544;-73
2023/12/21 12:56:21;;;;;;;2.53;0.93;;;;;7.50;94489.00;;;;8270427;28;20194;-72
2023/12/21 13:00:25;;;;;;;0.90;0.90;;;;;7.50;94483.00;;;;8271001;28;20226;-73
2023/12/21 13:04:29;;;;;;;1.00;1.00;;;;;7.50;94470.00;;;;8271153;28;20229;-73
2023/12/21 13:08:33;;;;;;;0.90;0.90;;;;;7.50;94469.00;;;;8270787;28;20531;-72
2023/12/21 13:12:36;;;;;;;0.95;0.95;;;;;7.50;94451.00;;;;8271265;28;20547;-75
2023/12/21 13:16:41;;;;;;;1.10;1.10;;;;;7.50;94455.00;;;;8271506;28;20202;-73
2023/12/21 13:20:44;;;;;;;0.90;0.90;;;;;7.50;94449.00;;;;8269134;28;20199;-73
2023/12/21 13:24:47;;;;;;;1.30;1.20;;;;;7.50;94447.00;;;;8270507;28;20230;-73
2023/12/21 13:28:54;;;;;;;2.83;2.50;;;;;7.50;94428.00;;;;8270165;28;20197;-72
2023/12/21 13:32:59;;;;;;;32.90;16.75;;;;;7.60;94433.00;;;;8270313;28;20198;-70
2023/12/21 13:37:02;;;;;;;6.27;5.23;;;;;7.50;94423.00;;;;8270937;28;20215;-71
2023/12/21 13:41:08;;;;;;;8.47;7.67;;;;;7.60;94412.00;;;;8269220;28;20203;-73
2023/12/21 13:45:12;;;;;;;2.63;2.53;;;;;7.50;94419.00;;;;8269207;28;20186;-72
2023/12/21 13:49:16;;;;;;;4.20;3.90;;;;;7.50;94408.00;;;;8269767;28;20203;-72
2023/12/21 13:53:19;;;;;;;1.60;1.60;;;;;7.50;94385.00;;;;8268903;28;20222;-72
2023/12/21 13:57:23;;;;;;;1.20;1.20;;;;;7.50;94392.00;;;;8269019;28;20223;-72
2023/12/21 14:01:26;;;;;;;6.25;5.80;;;;;7.50;94385.00;;;;8269251;28;20210;-72
2023/12/21 14:05:31;;;;;;;2.75;2.40;;;;;7.50;94390.00;;;;8269114;28;20218;-72
2023/12/21 14:09:37;;;;;;;4.03;3.73;;;;;7.50;94373.00;;;;8268303;28;20584;-72
2023/12/21 14:13:40;;;;;;;1.73;1.73;;;;;7.60;94373.00;;;;8268722;28;20278;-72
2023/12/21 14:17:43;;;;;;;1.40;1.40;;;;;7.60;94360.00;;;;8268359;28;20619;-72
2023/12/21 14:21:48;;;;;;;2.90;2.70;;;;;7.60;94355.00;;;;8267861;28;20652;-72
2023/12/21 14:25:52;;;;;;;1.00;1.00;;;;;7.60;94338.00;;;;8267217;28;20199;-73
2023/12/21 14:29:55;;;;;;;0.77;0.77;;;;;7.60;94340.00;;;;8268154;28;20211;-72
2023/12/21 14:34:00;;;;;;;0.70;0.70;;;;;7.60;94349.00;;;;8268693;28;20199;-73
2023/12/21 14:38:05;;;;;;;0.70;0.70;;;;;7.60;94340.00;;;;8269314;28;20225;-73
2023/12/21 14:42:08;;;;;;;0.90;0.90;;;;;7.60;94340.00;;;;8268319;28;20199;-72
2023/12/21 14:46:12;;;;;;;0.83;0.70;;;;;7.70;94318.00;;;;8267795;28;20198;-71
2023/12/21 14:50:15;;;;;;;0.90;0.90;;;;;7.70;94325.00;;;;8267290;28;20198;-73
2023/12/21 14:54:20;;;;;;;1.20;1.10;;;;;7.70;94319.00;;;;8266078;28;20198;-72
2023/12/21 14:58:23;;;;;;;0.90;0.90;;;;;7.70;94312.00;;;;8267429;28;20225;-71
2023/12/21 15:02:28;;;;;;;0.70;0.70;;;;;7.70;94310.00;;;;8267278;28;20218;-72
2023/12/21 15:06:31;;;;;;;1.02;1.00;;;;;7.70;94278.00;;;;8267985;28;20195;-72
2023/12/21 15:10:39;;;;;;;4.28;2.67;;;;;7.70;94277.00;;;;8267844;28;20532;-74
2023/12/21 15:14:43;;;;;;;2.72;2.53;;;;;7.80;94285.00;;;;8266684;28;20536;-74
2023/12/21 15:18:46;;;;;;;1.52;1.42;;;;;7.80;94277.00;;;;8266755;28;20719;-74
2023/12/21 15:22:51;;;;;;;3.60;3.30;;;;;7.90;94282.00;;;;8266089;28;20195;-74
2023/12/21 15:26:56;;;;;;;1.45;1.45;;;;;7.90;94278.00;;;;8266945;28;20187;-74
2023/12/21 15:31:00;;;;;;;1.80;1.67;;;;;8.00;94270.00;;;;8266550;28;20667;-75
2023/12/21 15:35:04;;;;;;;1.25;1.25;;;;;8.10;94257.00;;;;8266583;28;20195;-75
2023/12/21 15:39:08;;;;;;;1.30;1.20;;;;;8.10;94251.00;;;;8265516;28;20223;-76
2023/12/21 15:43:12;;;;;;;1.00;1.00;;;;;8.20;94239.00;;;;8262808;28;20540;-75
2023/12/21 15:47:16;;;;;;;1.38;1.38;;;;;8.20;94238.00;;;;8266206;28;20249;-74
2023/12/21 15:51:21;;;;;;;1.10;1.10;;;;;8.20;94245.00;;;;8267150;28;20636;-73
2023/12/21 15:55:24;;;;;;;2.72;1.40;;;;;8.20;94225.00;;;;8266464;28;20205;-73
2023/12/21 15:59:33;;;;;;;0.90;0.90;;;;;8.20;94214.00;;;;8264926;28;20700;-73
2023/12/21 16:03:36;;;;;;;2.67;0.93;;;;;8.20;94206.00;;;;8264728;28;20227;-73
2023/12/21 16:07:39;;;;;;;1.00;1.00;;;;;8.30;94193.00;;;;8265309;28;20199;-72
2023/12/21 16:11:43;;;;;;;1.00;1.00;;;;;8.20;94206.00;;;;8265027;28;20587;-72
2023/12/21 16:15:47;;;;;;;1.15;1.10;;;;;8.30;94193.00;;;;8265195;28;20239;-74
2023/12/21 16:19:51;;;;;;;1.50;1.40;;;;;8.30;94196.00;;;;8268552;28;20227;-73
2023/12/21 16:23:54;;;;;;;1.00;1.00;;;;;8.30;94197.00;;;;8272327;28;20194;-73
2023/12/21 16:27:59;;;;;;;1.08;1.00;;;;;8.30;94189.00;;;;8272010;28;20289;-75
2023/12/21 16:32:09;;;;;;;1.17;1.17;;;;;8.30;94191.00;;;;8271901;28;20536;-74
2023/12/21 16:36:13;;;;;;;1.20;1.20;;;;;8.40;94162.00;;;;8270932;28;20190;-75
2023/12/21 16:40:19;;;;;;;1.30;1.20;;;;;8.40;94178.00;;;;8271392;28;20283;-74
2023/12/21 16:44:23;;;;;;;0.95;0.95;;;;;8.40;94171.00;;;;8271112;28;20187;-74
2023/12/21 16:48:28;;;;;;;1.40;1.40;;;;;8.40;94171.00;;;;8271767;28;20203;-75
2023/12/21 16:52:31;;;;;;;0.90;0.90;;;;;8.50;94181.00;;;;8271194;28;20238;-75
2023/12/21 16:56:34;;;;;;;1.10;1.10;;;;;8.50;94177.00;;;;8271554;28;20217;-75
2023/12/21 17:00:37;;;;;;;0.77;0.77;;;;;8.60;94173.00;;;;8271457;28;20318;-74
2023/12/21 17:04:42;;;;;;;0.90;0.90;;;;;8.60;94185.00;;;;8297873;28;20260;-74
2023/12/21 17:08:45;;;;;;;0.60;0.60;;;;;8.70;94160.00;;;;8302418;28;20198;-74
2023/12/21 17:12:48;;;;;;;0.77;0.77;;;;;8.70;94169.00;;;;8303361;28;20719;-73
2023/12/21 17:16:52;;;;;;;0.55;0.55;;;;;8.70;94170.00;;;;8304000;28;20285;-73
2023/12/21 17:20:57;;;;;;;1.55;0.77;;;;;8.70;94178.00;;;;8303394;28;20229;-72
2023/12/21 17:25:01;;;;;;;0.68;0.68;;;;;8.70;94177.00;;;;8302717;28;20194;-73
2023/12/21 17:29:04;;;;;;;0.70;0.70;;;;;8.80;94150.00;;;;8302536;28;20240;-74
2023/12/21 17:33:07;;;;;;;0.88;0.88;;;;;8.70;94157.00;;;;8303860;28;20202;-74
2023/12/21 17:37:14;;;;;;;4.90;0.80;;;;;8.70;94133.00;;;;8302644;28;20206;-74
2023/12/21 17:41:18;;;;;;;0.73;0.73;;;;;8.70;94141.00;;;;8303545;28;20214;-73
2023/12/21 17:45:22;;;;;;;0.90;0.90;;;;;8.80;94146.00;;;;8302637;28;20190;-74
2023/12/21 17:49:25;;;;;;;0.80;0.80;;;;;8.80;94126.00;;;;8301891;28;20198;-73
2023/12/21 17:53:29;;;;;;;0.75;0.75;;;;;8.70;94140.00;;;;8301819;28;20202;-72
2023/12/21 17:57:33;;;;;;;0.98;0.70;;;;;8.80;94151.00;;;;8302726;28;20284;-73
2023/12/21 18:01:37;;;;;;;0.70;0.70;;;;;8.80;94151.00;;;;8301070;28;20314;-73
2023/12/21 18:05:41;;;;;;;0.80;0.80;;;;;8.80;94166.00;;;;8300908;28;20202;-72
2023/12/21 18:09:45;;;;;;;0.70;0.70;;;;;8.80;94145.00;;;;8301450;28;20187;-72
2023/12/21 18:13:49;;;;;;;0.82;0.82;;;;;8.90;94136.00;;;;8301038;28;20198;-72
2023/12/21 18:17:52;;;;;;;0.82;0.82;;;;;8.90;94131.00;;;;8301251;28;20197;-72
2023/12/21 18:21:56;;;;;;;0.88;0.88;;;;;8.90;94111.00;;;;8301136;28;20842;-73
2023/12/21 18:26:00;;;;;;;0.70;0.70;;;;;8.90;94140.00;;;;8301561;28;20198;-73
2023/12/21 18:30:05;;;;;;;0.70;0.70;;;;;8.90;94119.00;;;;8300884;28;20614;-72
2023/12/21 18:34:08;;;;;;;0.75;0.55;;;;;8.90;94112.00;;;;8300600;28;20198;-73
2023/12/21 18:38:11;;;;;;;0.70;0.70;;;;;8.90;94099.00;;;;8300206;28;20190;-73
2023/12/21 18:42:16;;;;;;;0.80;0.80;;;;;8.80;94104.00;;;;8300147;28;20269;-73
2023/12/21 18:46:19;;;;;;;0.70;0.70;;;;;8.80;94109.00;;;;8300119;28;20289;-74
2023/12/21 18:50:22;;;;;;;1.45;0.73;;;;;8.80;94110.00;;;;8300733;28;20523;-74
2023/12/21 18:54:25;;;;;;;0.70;0.70;;;;;8.90;94121.00;;;;8300683;28;20576;-74
2023/12/21 18:58:30;;;;;;;0.82;0.82;;;;;9.00;94097.00;;;;8299450;28;20285;-74
2023/12/21 19:02:35;;;;;;;0.90;0.90;;;;;9.00;94106.00;;;;8298010;28;20742;-75
2023/12/21 19:06:40;;;;;;;0.90;0.90;;;;;9.00;94071.00;;;;8300118;28;20202;-75
2023/12/21 19:10:45;;;;;;;0.73;0.73;;;;;9.10;94098.00;;;;8298816;28;20571;-75
2023/12/21 19:14:50;;;;;;;0.77;0.77;;;;;9.10;94105.00;;;;8298841;28;20603;-75
2023/12/21 19:18:53;;;;;;;0.90;0.90;;;;;9.10;94084.00;;;;8300011;28;20198;-75
2023/12/21 19:22:56;;;;;;;1.25;1.00;;;;;9.10;94085.00;;;;8299646;28;20288;-74
2023/12/21 19:26:59;;;;;;;3.00;1.02;;;;;9.10;94082.00;;;;8299011;28;20227;-73
2023/12/21 19:31:06;;;;;;;2.13;1.10;;;;;9.00;94067.00;;;;8298696;28;20189;-74
2023/12/21 19:35:09;;;;;;;1.40;1.20;;;;;8.90;94080.00;;;;8299158;28;20182;-74
2023/12/21 19:39:12;;;;;;;1.38;0.90;;;;;8.90;94083.00;;;;8299017;28;20218;-73
2023/12/21 19:43:16;;;;;;;1.20;1.20;;;;;8.80;94117.00;;;;8298848;28;20648;-74
2023/12/21 19:47:20;;;;;;;0.70;0.70;;;;;8.60;94121.00;;;;8298814;28;20202;-74
2023/12/21 19:51:24;;;;;;;0.70;0.70;;;;;8.10;94147.00;;;;8298844;28;20198;-75
2023/12/21 19:55:27;;;;;;;0.70;0.70;;;;;7.80;94146.00;;;;8298245;28;20269;-74
2023/12/21 19:59:31;;;;;;;0.40;0.40;;;;;7.60;94140.00;;;;8299022;28;20229;-75
2023/12/21 20:03:36;;;;;;;0.60;0.60;;;;;7.30;94190.00;;;;8299554;28;20225;-74
2023/12/21 20:07:39;;;;;;;0.70;0.70;;;;;7.20;94177.00;;;;8295444;28;20194;-74
2023/12/21 20:11:43;;;;;;;0.93;0.93;;;;;7.00;94115.00;;;;8266721;28;20560;-75
2023/12/21 20:15:46;;;;;;;0.70;0.70;;;;;6.90;94173.00;;;;8266200;28;20195;-74
2023/12/21 20:19:54;;;;;;;1.05;0.98;;;;;6.90;94196.00;;;;8266452;28;20210;-73
2023/12/21 20:23:57;;;;;;;4.27;0.90;;;;;6.80;94202.00;;;;8266112;28;20241;-73
2023/12/21 20:28:02;;;;;;;0.95;0.95;;;;;6.80;94127.00;;;;8265634;28;20195;-71
2023/12/21 20:32:05;;;;;;;3.70;1.00;;;;;6.70;94153.00;;;;8265460;28;20679;-72
2023/12/21 20:36:11;;;;;;;0.93;0.93;;;;;6.70;94166.00;;;;8266117;28;20609;-71
2023/12/21 20:40:16;;;;;;;2.15;0.88;;;;;6.80;94184.00;;;;8265496;28;20219;-71